Time;durP1;ratioP1;P1;durP2;ratioP2;P2;SDS_P1;SDS_P2;PMS_P1;PMS_P2;Temp;Humidity;BMP_temperature;BMP_pressure;BME280_temperature;BME280_humidity;BME280_pressure;Samples;Min_cycle;Max_cycle;Signal;HPM_P1;HPM_P2
2022/07/24 00:01:28;;;;;;;6.43;5.93;;;16.50;99.90;;;;;;5080664;28;20032;-52
2022/07/24 00:03:54;;;;;;;7.00;6.50;;;16.40;99.90;;;;;;5087345;28;20127;-48
2022/07/24 00:06:19;;;;;;;8.55;5.75;;;16.40;99.90;;;;;;5083351;28;20037;-51
2022/07/24 00:08:45;;;;;;;5.68;5.28;;;16.40;99.90;;;;;;5086269;28;20452;-48
2022/07/24 00:11:11;;;;;;;7.63;6.20;;;16.40;99.90;;;;;;5085735;28;20039;-47
2022/07/24 00:13:36;;;;;;;6.75;6.05;;;16.40;99.90;;;;;;5082110;28;20035;-49
2022/07/24 00:16:02;;;;;;;6.30;5.80;;;16.30;99.90;;;;;;5084938;28;20127;-50
2022/07/24 00:18:28;;;;;;;6.22;5.72;;;16.30;99.90;;;;;;5088643;28;20047;-49
2022/07/24 00:20:53;;;;;;;6.47;5.88;;;16.30;99.90;;;;;;5085371;28;20101;-51
2022/07/24 00:23:19;;;;;;;6.88;6.18;;;16.30;99.90;;;;;;5088320;28;20040;-48
2022/07/24 00:25:45;;;;;;;6.55;5.90;;;16.20;99.90;;;;;;5084029;28;20383;-47
2022/07/24 00:28:10;;;;;;;6.38;5.85;;;16.20;99.90;;;;;;5083252;28;20059;-50
2022/07/24 00:30:37;;;;;;;6.75;6.15;;;16.10;99.90;;;;;;5082048;28;20044;-52
2022/07/24 00:33:03;;;;;;;7.03;6.40;;;16.10;99.90;;;;;;5084213;28;20044;-48
2022/07/24 00:35:29;;;;;;;6.60;6.10;;;16.10;99.90;;;;;;5084334;28;20390;-49
2022/07/24 00:37:54;;;;;;;7.35;6.30;;;16.10;99.90;;;;;;5086400;28;20482;-49
2022/07/24 00:40:20;;;;;;;6.57;5.97;;;16.10;99.90;;;;;;5081859;28;20048;-52
2022/07/24 00:42:45;;;;;;;7.13;6.53;;;16.10;99.90;;;;;;5083367;28;20048;-48
2022/07/24 00:45:11;;;;;;;7.30;6.60;;;16.10;99.90;;;;;;5086096;28;20071;-48
2022/07/24 00:47:37;;;;;;;7.10;6.40;;;16.00;99.90;;;;;;5083690;28;20032;-48
2022/07/24 00:50:04;;;;;;;6.60;6.07;;;16.00;99.90;;;;;;5083643;28;20066;-49
2022/07/24 00:52:30;;;;;;;6.47;5.90;;;16.00;99.90;;;;;;5084217;28;20377;-50
2022/07/24 00:54:56;;;;;;;6.90;6.30;;;16.00;99.90;;;;;;5079819;28;20047;-53
2022/07/24 00:57:21;;;;;;;7.68;6.60;;;16.00;99.90;;;;;;5081902;28;20040;-49
2022/07/24 00:59:47;;;;;;;7.03;6.43;;;15.90;99.90;;;;;;5083358;28;20047;-48
2022/07/24 01:02:13;;;;;;;7.28;6.60;;;15.90;99.90;;;;;;5078198;28;20040;-51
2022/07/24 01:04:39;;;;;;;7.82;6.20;;;15.90;99.90;;;;;;5079489;28;20117;-48
2022/07/24 01:07:06;;;;;;;6.65;6.00;;;15.90;99.90;;;;;;5081153;28;20081;-48
2022/07/24 01:09:32;;;;;;;7.47;6.88;;;15.90;99.90;;;;;;5077733;28;20047;-50
2022/07/24 01:11:58;;;;;;;7.28;6.57;;;15.90;99.90;;;;;;5078372;28;20644;-50
2022/07/24 01:14:25;;;;;;;6.95;6.25;;;15.80;99.90;;;;;;5077204;28;20160;-48
2022/07/24 01:16:50;;;;;;;6.88;6.20;;;15.80;99.90;;;;;;5076455;28;20044;-48
2022/07/24 01:19:16;;;;;;;7.57;6.88;;;15.80;99.90;;;;;;5078749;28;20408;-48
2022/07/24 01:21:48;;;;;;;7.22;6.50;;;15.80;99.90;;;;;;5079519;28;20625;-50
2022/07/24 01:24:14;;;;;;;7.03;6.40;;;15.80;99.90;;;;;;5077691;28;20048;-47
2022/07/24 01:26:39;;;;;;;6.50;5.88;;;15.80;99.90;;;;;;5079548;28;20498;-52
2022/07/24 01:29:05;;;;;;;7.32;6.65;;;15.70;99.90;;;;;;5080796;28;20119;-49
2022/07/24 01:31:31;;;;;;;6.57;5.97;;;15.70;99.90;;;;;;5078012;28;21292;-54
2022/07/24 01:33:56;;;;;;;6.65;6.15;;;15.70;99.90;;;;;;5079895;28;20060;-54
2022/07/24 01:36:22;;;;;;;7.72;6.35;;;15.70;99.90;;;;;;5079511;28;20046;-50
2022/07/24 01:38:47;;;;;;;6.43;5.82;;;15.70;99.90;;;;;;5076134;28;20548;-49
2022/07/24 01:41:13;;;;;;;7.72;6.70;;;15.70;99.90;;;;;;5082471;28;20044;-53
2022/07/24 01:43:39;;;;;;;7.10;6.53;;;15.70;99.90;;;;;;5078376;28;20070;-48
2022/07/24 01:46:05;;;;;;;6.20;5.70;;;15.70;99.90;;;;;;5077656;28;20622;-52
2022/07/24 01:48:30;;;;;;;6.85;6.03;;;15.70;99.90;;;;;;5078859;28;20037;-51
2022/07/24 01:50:56;;;;;;;7.05;6.32;;;15.70;99.90;;;;;;5077273;28;20493;-48
2022/07/24 01:53:22;;;;;;;7.10;6.40;;;15.70;99.90;;;;;;5075858;28;20506;-50
2022/07/24 01:55:50;;;;;;;6.18;5.70;;;15.70;99.90;;;;;;5075763;28;20348;-48
2022/07/24 01:58:16;;;;;;;6.35;5.68;;;15.60;99.90;;;;;;5080826;28;20040;-51
2022/07/24 02:00:41;;;;;;;6.90;5.70;;;15.60;99.90;;;;;;5074509;28;20047;-49
2022/07/24 02:03:07;;;;;;;6.47;5.75;;;15.60;99.90;;;;;;5082370;28;20108;-51
2022/07/24 02:05:33;;;;;;;6.55;5.95;;;15.60;99.90;;;;;;5084655;28;20082;-48
2022/07/24 02:08:00;;;;;;;5.85;5.45;;;15.60;99.90;;;;;;5084752;28;20074;-48
2022/07/24 02:10:27;;;;;;;6.53;5.93;;;15.60;99.90;;;;;;5082583;28;20134;-47
2022/07/24 02:12:54;;;;;;;6.10;5.60;;;15.60;99.90;;;;;;5076553;28;20544;-51
2022/07/24 02:15:19;;;;;;;6.40;5.90;;;15.60;99.90;;;;;;5078343;28;20109;-47
2022/07/24 02:17:54;;;;;;;6.13;5.53;;;15.60;99.90;;;;;;5079768;28;20210;-49
2022/07/24 02:20:20;;;;;;;7.00;5.03;;;15.50;99.90;;;;;;5076550;28;20074;-51
2022/07/24 02:22:46;;;;;;;6.00;5.50;;;15.50;99.90;;;;;;5076876;28;20047;-51
2022/07/24 02:25:12;;;;;;;5.32;4.82;;;15.50;99.90;;;;;;5078786;28;20040;-47
2022/07/24 02:27:38;;;;;;;6.07;5.18;;;15.60;99.90;;;;;;5082127;28;20394;-47
2022/07/24 02:30:06;;;;;;;5.70;5.03;;;15.50;99.90;;;;;;5079058;28;20036;-47
2022/07/24 02:32:32;;;;;;;5.20;4.70;;;15.50;99.90;;;;;;5078601;28;20464;-49
2022/07/24 02:34:58;;;;;;;5.30;4.80;;;15.50;99.90;;;;;;5078324;28;20139;-54
2022/07/24 02:37:23;;;;;;;6.20;4.93;;;15.60;99.90;;;;;;5080507;28;20056;-49
2022/07/24 02:39:49;;;;;;;5.65;5.13;;;15.60;99.90;;;;;;5094977;22;20497;-85
2022/07/24 02:42:15;;;;;;;6.28;5.47;;;15.60;99.90;;;;;;5038142;28;20190;-85
2022/07/24 02:44:40;;;;;;;6.13;4.97;;;15.60;99.90;;;;;;5034751;28;22422;-84
2022/07/24 02:47:06;;;;;;;5.07;4.65;;;15.60;99.90;;;;;;5050894;28;20040;-84
2022/07/24 02:49:31;;;;;;;5.47;4.97;;;15.60;99.90;;;;;;5051971;28;20049;-85
2022/07/24 02:51:57;;;;;;;4.95;4.55;;;15.60;99.90;;;;;;5056113;28;20040;-85
2022/07/24 02:54:22;;;;;;;5.10;4.70;;;15.60;99.90;;;;;;5055131;28;20047;-85
2022/07/24 02:56:48;;;;;;;5.32;4.90;;;15.60;99.90;;;;;;5050926;28;20055;-85
2022/07/24 02:59:14;;;;;;;5.53;5.05;;;15.60;99.90;;;;;;5065808;28;20041;-85
2022/07/24 03:01:40;;;;;;;5.20;4.70;;;15.60;99.90;;;;;;5050980;28;20052;-85
2022/07/24 03:04:05;;;;;;;5.78;4.68;;;15.60;99.90;;;;;;5050606;28;20441;-85
2022/07/24 03:06:31;;;;;;;6.38;4.57;;;15.60;99.90;;;;;;5034900;28;20048;-85
2022/07/24 03:08:56;;;;;;;5.97;5.38;;;15.60;99.90;;;;;;5034817;28;20401;-86
2022/07/24 03:11:22;;;;;;;5.45;4.97;;;15.60;99.90;;;;;;5053479;28;20048;-86
2022/07/24 03:13:47;;;;;;;6.90;5.22;;;15.60;99.90;;;;;;5052127;28;20598;-84
2022/07/24 03:16:13;;;;;;;5.25;4.75;;;15.60;99.90;;;;;;5052935;28;20122;-89
2022/07/24 03:18:40;;;;;;;5.40;4.80;;;15.60;99.90;;;;;;5055451;28;20062;-85
2022/07/24 03:21:06;;;;;;;6.53;4.95;;;15.60;99.90;;;;;;5038360;28;20129;-85
2022/07/24 03:23:32;;;;;;;5.47;4.97;;;15.60;99.90;;;;;;5032832;28;20151;-85
2022/07/24 03:25:57;;;;;;;7.57;5.22;;;15.60;99.90;;;;;;5050405;28;20075;-85
2022/07/24 03:28:23;;;;;;;5.40;5.00;;;15.60;99.90;;;;;;5036255;28;20579;-85
2022/07/24 03:30:48;;;;;;;6.30;5.68;;;15.60;99.90;;;;;;5029282;28;20067;-85
2022/07/24 03:33:14;;;;;;;6.35;5.53;;;15.60;99.90;;;;;;5036542;28;20051;-85
2022/07/24 03:35:39;;;;;;;7.70;5.40;;;15.50;99.90;;;;;;5052804;28;20044;-85
2022/07/24 03:38:05;;;;;;;6.38;5.78;;;15.50;99.90;;;;;;5036678;28;20129;-85
2022/07/24 03:40:30;;;;;;;5.50;4.97;;;15.60;99.90;;;;;;5055565;28;20057;-85
2022/07/24 03:42:56;;;;;;;7.20;5.70;;;15.60;99.90;;;;;;5048894;28;20168;-87
2022/07/24 03:45:22;;;;;;;5.78;5.20;;;15.60;99.90;;;;;;5037289;28;20467;-91
2022/07/24 03:47:47;;;;;;;6.00;5.57;;;15.60;99.90;;;;;;5061458;28;20053;-86
2022/07/24 03:50:13;;;;;;;6.07;5.47;;;15.60;99.90;;;;;;5054580;28;20040;-87
2022/07/24 03:52:38;;;;;;;7.10;5.38;;;15.60;99.90;;;;;;5055846;28;20127;-86
2022/07/24 03:55:04;;;;;;;5.70;5.20;;;15.60;99.90;;;;;;5053880;28;20040;-86
2022/07/24 03:57:30;;;;;;;6.20;5.63;;;15.70;99.90;;;;;;5046756;28;22270;-86
2022/07/24 03:59:55;;;;;;;6.40;5.63;;;15.70;99.90;;;;;;5033402;28;20044;-86
2022/07/24 04:02:21;;;;;;;8.43;5.55;;;15.70;99.90;;;;;;5037539;28;20040;-86
2022/07/24 04:04:47;;;;;;;5.85;5.07;;;15.80;99.90;;;;;;5056524;28;20041;-86
2022/07/24 04:07:12;;;;;;;7.47;5.40;;;15.80;99.90;;;;;;5034897;28;20408;-86
2022/07/24 04:09:38;;;;;;;5.28;4.75;;;15.90;99.90;;;;;;5052770;28;20056;-86
2022/07/24 04:12:04;;;;;;;7.25;4.93;;;15.90;99.90;;;;;;5049776;28;20077;-86
2022/07/24 04:14:29;;;;;;;5.80;5.25;;;15.90;99.90;;;;;;5051103;28;20044;-87
2022/07/24 04:16:55;;;;;;;7.20;5.60;;;16.00;99.90;;;;;;5032402;28;20044;-87
2022/07/24 04:19:21;;;;;;;5.63;5.10;;;16.00;99.90;;;;;;5043618;28;20412;-88
2022/07/24 04:21:46;;;;;;;7.50;5.50;;;16.00;99.90;;;;;;5065448;28;20049;-88
2022/07/24 04:24:12;;;;;;;5.93;5.15;;;16.00;99.90;;;;;;5061069;28;20040;-88
2022/07/24 04:26:38;;;;;;;5.93;4.72;;;16.10;99.90;;;;;;5056638;28;20047;-89
2022/07/24 04:29:03;;;;;;;5.50;5.00;;;16.20;99.90;;;;;;5043333;28;20048;-87
2022/07/24 04:31:29;;;;;;;6.88;5.10;;;16.20;99.90;;;;;;5053928;28;20126;-87
2022/07/24 04:33:54;;;;;;;6.57;4.85;;;16.20;99.90;;;;;;5057426;28;20076;-87
2022/07/24 04:36:20;;;;;;;7.00;5.00;;;16.30;99.90;;;;;;5058858;28;20043;-86
2022/07/24 04:38:46;;;;;;;6.03;4.68;;;16.30;99.90;;;;;;5059114;28;20037;-86
2022/07/24 04:41:11;;;;;;;5.53;4.68;;;16.30;99.90;;;;;;5055892;28;20165;-86
2022/07/24 04:43:37;;;;;;;5.95;5.22;;;16.40;99.90;;;;;;5041275;28;20095;-87
2022/07/24 04:46:03;;;;;;;6.22;5.05;;;16.40;99.90;;;;;;5040404;28;20048;-87
2022/07/24 04:48:28;;;;;;;6.15;5.57;;;16.40;99.90;;;;;;5040228;28;20132;-87
2022/07/24 04:50:54;;;;;;;5.95;5.15;;;16.40;99.90;;;;;;5056323;28;20043;-87
2022/07/24 04:53:19;;;;;;;6.15;5.55;;;16.50;99.90;;;;;;5035782;28;20491;-87
2022/07/24 04:55:45;;;;;;;6.00;5.30;;;16.60;99.90;;;;;;5055577;28;21533;-87
2022/07/24 04:58:11;;;;;;;6.45;4.97;;;16.90;99.90;;;;;;5058882;28;20443;-88
2022/07/24 05:00:36;;;;;;;6.00;5.10;;;17.30;99.90;;;;;;5036156;28;20052;-87
2022/07/24 05:03:02;;;;;;;7.10;5.30;;;18.10;99.90;;;;;;5054836;28;20040;-88
2022/07/24 05:05:27;;;;;;;6.80;4.90;;;18.50;99.90;;;;;;5026474;28;20047;-88
2022/07/24 05:07:53;;;;;;;6.82;5.50;;;18.90;99.90;;;;;;5039349;28;20365;-88
2022/07/24 05:10:19;;;;;;;8.38;5.03;;;18.90;99.90;;;;;;5057153;28;20068;-89
2022/07/24 05:12:44;;;;;;;5.72;5.22;;;19.30;99.90;;;;;;5055977;28;20044;-88
2022/07/24 05:15:10;;;;;;;6.22;5.40;;;19.70;99.90;;;;;;5054291;28;20355;-88
2022/07/24 05:17:36;;;;;;;6.20;5.65;;;20.00;99.90;;;;;;5053806;28;20120;-88
2022/07/24 05:20:04;;;;;;;7.15;5.85;;;20.10;99.90;;;;;;5059458;28;20098;-88
2022/07/24 05:22:29;;;;;;;;;;;20.50;99.90;;;;;;5059028;28;20160;-88
2022/07/24 05:24:55;;;;;;;6.55;5.85;;;21.50;99.90;;;;;;5052303;28;19976;-88
2022/07/24 05:27:21;;;;;;;7.60;5.05;;;22.00;99.90;;;;;;5055247;28;20044;-89
2022/07/24 05:29:46;;;;;;;6.68;5.90;;;22.60;99.90;;;;;;5058326;28;20074;-88
2022/07/24 05:32:12;;;;;;;9.45;5.90;;;23.40;99.90;;;;;;5059097;28;20044;-89
2022/07/24 05:34:38;;;;;;;6.60;5.78;;;24.00;99.90;;;;;;5057745;28;20097;-88
2022/07/24 05:37:04;;;;;;;7.10;6.20;;;24.60;99.90;;;;;;5055270;28;20119;-86
2022/07/24 05:39:29;;;;;;;8.63;6.80;;;25.10;99.90;;;;;;5060430;28;20057;-87
2022/07/24 05:41:55;;;;;;;8.52;7.43;;;25.20;99.90;;;;;;5056891;28;20064;-85
2022/07/24 05:44:21;;;;;;;11.38;7.20;;;25.10;99.90;;;;;;5056807;28;20040;-86
2022/07/24 05:46:47;;;;;;;8.07;7.28;;;24.90;99.90;;;;;;5053447;28;20033;-85
2022/07/24 05:49:12;;;;;;;7.82;6.57;;;25.10;99.90;;;;;;5057477;28;20078;-85
2022/07/24 05:51:38;;;;;;;8.15;7.15;;;25.20;99.90;;;;;;5056979;28;20047;-86
2022/07/24 05:54:04;;;;;;;7.78;6.80;;;25.90;99.90;;;;;;5053031;28;20440;-85
2022/07/24 05:56:30;;;;;;;7.72;6.90;;;26.50;99.90;;;;;;5057419;28;20044;-85
2022/07/24 05:58:56;;;;;;;7.40;6.68;;;27.20;99.90;;;;;;5053646;28;20040;-85
2022/07/24 06:01:22;;;;;;;9.27;7.28;;;27.80;99.90;;;;;;5056349;28;20102;-85
2022/07/24 06:03:47;;;;;;;7.75;6.97;;;27.80;97.90;;;;;;5020977;28;20091;-86
2022/07/24 06:06:13;;;;;;;7.90;7.10;;;27.60;97.40;;;;;;5037834;28;20036;-86
2022/07/24 06:08:39;;;;;;;8.85;7.50;;;28.30;97.80;;;;;;5039286;28;20052;-87
2022/07/24 06:13:36;;;;;;;8.25;7.47;;;29.00;96.10;;;;;;5035975;28;20045;-57
2022/07/24 06:16:02;;;;;;;7.95;6.80;;;29.30;94.90;;;;;;5039128;28;20385;-57
2022/07/24 06:18:28;;;;;;;8.25;7.40;;;29.40;95.00;;;;;;5038839;28;20075;-57
2022/07/24 06:20:54;;;;;;;8.23;7.25;;;29.40;93.50;;;;;;5038251;28;20570;-57
2022/07/24 06:23:19;;;;;;;8.68;7.78;;;29.40;93.60;;;;;;5036333;28;20381;-57
2022/07/24 06:25:45;;;;;;;9.02;7.95;;;29.20;93.00;;;;;;5035416;28;20091;-57
2022/07/24 06:28:10;;;;;;;7.88;7.15;;;29.40;92.40;;;;;;5046582;28;20412;-56
2022/07/24 06:30:36;;;;;;;9.93;8.23;;;29.20;92.70;;;;;;5040513;28;20079;-57
2022/07/24 06:33:01;;;;;;;8.43;7.45;;;29.40;92.10;;;;;;5037260;28;20385;-58
2022/07/24 06:35:28;;;;;;;10.02;7.72;;;29.90;92.40;;;;;;5034915;28;20543;-56
2022/07/24 06:37:55;;;;;;;9.43;7.80;;;30.10;92.50;;;;;;5038039;28;20049;-57
2022/07/24 06:40:21;;;;;;;8.73;7.90;;;30.40;90.90;;;;;;5033858;28;20124;-56
2022/07/24 06:42:47;;;;;;;8.75;7.95;;;30.10;89.60;;;;;;5042347;28;20037;-55
2022/07/24 06:45:13;;;;;;;8.85;7.95;;;30.50;90.20;;;;;;5035111;28;20571;-56
2022/07/24 06:47:40;;;;;;;8.40;7.70;;;30.30;90.20;;;;;;5031877;28;20072;-56
2022/07/24 06:50:07;;;;;;;9.02;7.97;;;30.70;90.50;;;;;;5036314;28;20041;-56
2022/07/24 06:52:32;;;;;;;8.33;7.53;;;30.80;90.20;;;;;;5016958;28;20072;-55
2022/07/24 06:54:58;;;;;;;9.52;8.63;;;30.70;88.50;;;;;;5033978;28;20029;-58
2022/07/24 06:57:25;;;;;;;10.05;9.05;;;31.00;88.50;;;;;;5036734;28;20428;-58
2022/07/24 06:59:52;;;;;;;9.52;8.63;;;30.60;86.30;;;;;;5032677;28;20050;-57
2022/07/24 07:02:18;;;;;;;9.30;8.50;;;30.90;88.10;;;;;;5033920;28;20044;-57
2022/07/24 07:04:44;;;;;;;10.07;9.15;;;30.70;87.40;;;;;;5037779;28;20043;-56
2022/07/24 07:07:10;;;;;;;9.98;9.07;;;30.80;88.60;;;;;;5042863;28;20036;-57
2022/07/24 07:09:35;;;;;;;10.43;9.45;;;30.90;85.80;;;;;;5045790;28;20045;-57
2022/07/24 07:12:02;;;;;;;10.45;9.30;;;30.40;87.10;;;;;;5035333;28;20500;-56
2022/07/24 07:14:27;;;;;;;11.77;9.35;;;30.70;88.00;;;;;;5044646;28;20049;-57
2022/07/24 07:16:53;;;;;;;10.00;9.10;;;30.50;87.80;;;;;;5038040;28;20051;-58
2022/07/24 07:19:19;;;;;;;11.02;9.73;;;30.70;85.20;;;;;;5031657;28;20068;-57
2022/07/24 07:21:44;;;;;;;13.40;10.30;;;30.90;87.60;;;;;;5037484;28;20043;-58
2022/07/24 07:24:10;;;;;;;11.48;10.30;;;30.80;86.90;;;;;;5037139;28;20086;-57
2022/07/24 07:26:35;;;;;;;11.23;10.13;;;31.10;87.10;;;;;;5037913;28;20069;-59
2022/07/24 07:29:01;;;;;;;9.68;8.77;;;31.30;86.20;;;;;;5037156;28;20693;-58
2022/07/24 07:31:27;;;;;;;10.45;9.45;;;31.20;86.90;;;;;;5033159;28;20460;-56
2022/07/24 07:33:53;;;;;;;11.05;10.05;;;31.20;86.30;;;;;;5037642;28;20040;-57
2022/07/24 07:36:19;;;;;;;10.57;9.48;;;31.30;85.90;;;;;;5034017;28;20057;-58
2022/07/24 07:38:45;;;;;;;9.90;8.90;;;31.30;86.40;;;;;;5036713;28;20514;-58
2022/07/24 07:41:11;;;;;;;10.83;9.03;;;31.20;86.60;;;;;;5032899;28;20076;-55
2022/07/24 07:43:38;;;;;;;10.63;9.63;;;30.90;85.00;;;;;;5033641;28;20041;-56
2022/07/24 07:46:04;;;;;;;12.90;9.40;;;30.40;85.60;;;;;;5035050;28;20064;-57
2022/07/24 07:48:30;;;;;;;10.93;9.93;;;29.80;85.90;;;;;;5039423;28;20037;-57
2022/07/24 07:50:56;;;;;;;11.20;9.97;;;29.30;86.40;;;;;;5037970;28;20134;-57
2022/07/24 07:53:22;;;;;;;10.23;9.25;;;28.80;88.10;;;;;;5053609;28;20302;-56
2022/07/24 07:55:51;;;;;;;11.90;10.15;;;28.70;90.30;;;;;;5031784;28;20029;-56
2022/07/24 07:58:17;;;;;;;12.35;10.85;;;28.30;90.30;;;;;;5049349;28;20052;-56
2022/07/24 08:00:43;;;;;;;11.23;10.07;;;27.80;90.40;;;;;;5045665;28;20045;-56
2022/07/24 08:03:09;;;;;;;11.73;10.10;;;27.70;90.90;;;;;;5041527;28;20037;-58
2022/07/24 08:05:35;;;;;;;11.80;10.57;;;27.50;91.10;;;;;;5040344;28;20147;-58
2022/07/24 08:08:01;;;;;;;12.13;10.63;;;27.50;91.30;;;;;;5043712;28;20060;-58
2022/07/24 08:10:26;;;;;;;13.85;10.63;;;27.30;91.60;;;;;;5042977;28;20044;-58
2022/07/24 08:12:52;;;;;;;12.00;10.48;;;27.20;91.60;;;;;;5038935;28;20049;-57
2022/07/24 08:15:18;;;;;;;11.25;10.07;;;27.20;92.20;;;;;;5042394;28;20055;-58
2022/07/24 08:17:44;;;;;;;13.32;11.43;;;26.90;91.70;;;;;;5048685;28;21909;-59
2022/07/24 08:20:10;;;;;;;11.80;10.60;;;27.10;92.70;;;;;;5044536;28;20537;-59
2022/07/24 08:22:36;;;;;;;12.87;11.57;;;27.10;92.90;;;;;;5044574;28;20041;-55
2022/07/24 08:25:02;;;;;;;15.85;11.88;;;26.80;92.30;;;;;;5042113;28;20044;-58
2022/07/24 08:27:28;;;;;;;12.35;10.82;;;26.80;92.30;;;;;;5040848;28;20057;-57
2022/07/24 08:29:54;;;;;;;12.13;9.00;;;26.90;92.20;;;;;;5040679;28;20404;-57
2022/07/24 08:32:20;;;;;;;9.68;8.68;;;26.80;91.40;;;;;;5040782;28;20072;-57
2022/07/24 08:34:46;;;;;;;10.88;8.77;;;26.80;91.50;;;;;;5038608;28;20453;-57
2022/07/24 08:37:12;;;;;;;9.43;8.48;;;26.90;91.80;;;;;;5038473;28;20136;-56
2022/07/24 08:39:37;;;;;;;7.13;6.50;;;27.00;92.10;;;;;;5036404;28;20075;-55
2022/07/24 08:42:03;;;;;;;8.48;7.57;;;26.80;90.50;;;;;;5034605;28;20453;-56
2022/07/24 08:44:29;;;;;;;7.68;6.75;;;26.80;90.80;;;;;;5033899;28;20038;-56
2022/07/24 08:46:58;;;;;;;9.27;8.38;;;26.80;90.80;;;;;;5038273;28;20076;-56
2022/07/24 08:49:26;;;;;;;8.35;7.40;;;27.00;90.90;;;;;;5032057;28;20200;-57
2022/07/24 08:51:53;;;;;;;6.65;6.07;;;27.10;91.20;;;;;;5034713;28;20551;-57
2022/07/24 08:54:19;;;;;;;6.38;5.78;;;27.00;90.70;;;;;;5039157;28;20116;-57
2022/07/24 08:56:44;;;;;;;7.78;6.15;;;26.80;90.60;;;;;;5037717;28;20126;-56
2022/07/24 08:59:22;;;;;;;8.55;5.75;;;26.70;90.20;;;;;;5032180;28;20132;-56
2022/07/24 09:01:48;;;;;;;6.60;5.88;;;26.60;90.40;;;;;;5033962;28;20041;-58
2022/07/24 09:04:34;;;;;;;6.05;5.45;;;26.70;91.20;;;;;;5032460;28;20231;-58
2022/07/24 09:07:01;;;;;;;7.22;5.55;;;27.00;90.70;;;;;;5030502;28;20048;-58
2022/07/24 09:09:26;;;;;;;6.05;5.43;;;27.10;91.20;;;;;;5021641;28;21952;-57
2022/07/24 09:12:03;;;;;;;8.07;5.30;;;27.30;91.20;;;;;;5032099;28;21708;-55
2022/07/24 09:14:32;;;;;;;6.57;4.70;;;27.50;91.30;;;;;;5038258;28;20094;-58
2022/07/24 09:17:12;;;;;;;5.15;4.00;;;27.60;90.40;;;;;;5035404;28;20065;-57
2022/07/24 09:19:55;;;;;;;4.50;4.10;;;27.70;90.50;;;;;;5034932;28;20668;-58
2022/07/24 09:22:41;;;;;;;5.80;4.25;;;27.90;90.60;;;;;;5018405;28;20045;-59
2022/07/24 09:25:19;;;;;;;4.40;4.00;;;28.10;90.30;;;;;;5024046;28;20056;-57
2022/07/24 09:27:47;;;;;;;4.03;3.60;;;28.00;90.50;;;;;;5036313;28;20169;-59
2022/07/24 09:30:36;;;;;;;3.90;3.47;;;28.20;90.10;;;;;;5040912;28;20495;-58
2022/07/24 09:33:12;;;;;;;3.83;3.42;;;28.20;89.00;;;;;;5037836;28;20048;-58
2022/07/24 09:35:46;;;;;;;5.55;2.85;;;28.30;89.00;;;;;;5040549;28;20143;-58
2022/07/24 09:38:23;;;;;;;5.20;3.22;;;28.40;88.20;;;;;;5038313;28;20045;-58
2022/07/24 09:40:54;;;;;;;3.47;3.17;;;28.40;87.90;;;;;;5024882;28;20047;-58
2022/07/24 09:43:29;;;;;;;6.78;2.70;;;28.50;88.10;;;;;;5021190;28;20300;-57
2022/07/24 09:46:02;;;;;;;3.17;2.90;;;28.50;87.50;;;;;;5036206;28;20143;-59
2022/07/24 09:48:40;;;;;;;4.30;2.90;;;28.50;85.60;;;;;;5040123;28;20033;-57
2022/07/24 09:51:15;;;;;;;3.00;2.80;;;28.50;86.80;;;;;;5042008;28;20045;-59
2022/07/24 09:53:43;;;;;;;3.17;2.75;;;28.60;86.60;;;;;;5038771;28;20056;-57
2022/07/24 09:56:15;;;;;;;2.40;2.20;;;28.50;85.90;;;;;;5029168;28;20040;-57
2022/07/24 09:58:47;;;;;;;10.30;4.05;;;28.50;84.90;;;;;;5047642;28;20377;-57
2022/07/24 10:01:14;;;;;;;2.65;2.20;;;28.60;85.10;;;;;;5049110;28;20480;-57
2022/07/24 10:03:43;;;;;;;2.20;2.00;;;28.70;86.00;;;;;;5028966;28;20044;-57
2022/07/24 10:06:11;;;;;;;2.53;2.33;;;28.60;84.60;;;;;;5041987;28;20049;-59
2022/07/24 10:08:39;;;;;;;2.80;2.50;;;28.50;83.70;;;;;;5040600;28;20041;-57
2022/07/24 10:11:05;;;;;;;2.40;2.20;;;28.70;85.00;;;;;;5044338;28;20041;-58
2022/07/24 10:13:31;;;;;;;2.22;2.03;;;28.80;86.30;;;;;;5046394;28;20048;-59
2022/07/24 10:16:00;;;;;;;2.10;1.92;;;28.80;85.20;;;;;;5043899;28;20053;-58
2022/07/24 10:18:43;;;;;;;2.22;1.70;;;28.90;83.80;;;;;;5041403;28;20033;-57
2022/07/24 10:21:11;;;;;;;1.98;1.80;;;28.90;85.10;;;;;;5041571;28;20048;-57
2022/07/24 10:23:48;;;;;;;2.67;2.00;;;29.00;83.90;;;;;;5040312;28;20471;-57
2022/07/24 10:26:23;;;;;;;3.35;1.90;;;29.10;81.90;;;;;;5040887;28;20041;-57
2022/07/24 10:28:59;;;;;;;1.60;1.50;;;29.00;83.30;;;;;;5038526;28;20049;-56
2022/07/24 10:31:26;;;;;;;2.50;1.50;;;29.00;81.80;;;;;;5042386;28;20038;-58
2022/07/24 10:33:56;;;;;;;2.33;1.65;;;28.90;82.50;;;;;;5040943;28;20056;-56
2022/07/24 10:36:33;;;;;;;4.72;1.50;;;29.00;82.20;;;;;;5041291;28;20092;-59
2022/07/24 10:39:04;;;;;;;1.63;1.52;;;28.90;81.90;;;;;;5040246;28;20454;-57
2022/07/24 10:41:31;;;;;;;1.83;1.70;;;29.00;83.70;;;;;;5041057;28;20037;-58
2022/07/24 10:44:17;;;;;;;1.65;1.55;;;29.10;82.20;;;;;;5038676;28;20127;-58
2022/07/24 10:47:04;;;;;;;1.88;1.75;;;29.10;83.40;;;;;;5041090;28;20041;-59
2022/07/24 10:49:47;;;;;;;1.60;1.50;;;29.30;83.60;;;;;;5039578;28;20058;-58
2022/07/24 10:52:24;;;;;;;1.50;1.40;;;29.20;82.30;;;;;;5041847;28;20047;-58
2022/07/24 10:55:22;;;;;;;1.60;1.50;;;29.30;82.20;;;;;;5040265;28;20492;-57
2022/07/24 10:58:08;;;;;;;1.52;1.42;;;29.40;81.60;;;;;;5042329;28;20342;-57
2022/07/24 11:00:46;;;;;;;1.77;1.67;;;29.20;82.00;;;;;;5036987;28;20061;-59
2022/07/24 11:03:19;;;;;;;1.65;1.55;;;29.30;81.80;;;;;;5039311;28;20037;-57
2022/07/24 11:06:05;;;;;;;1.95;1.40;;;29.50;83.00;;;;;;5042451;28;20392;-57
2022/07/24 11:08:41;;;;;;;2.80;1.95;;;29.60;82.10;;;;;;5037957;28;20145;-57
2022/07/24 11:11:19;;;;;;;1.80;1.50;;;29.60;80.80;;;;;;5035465;28;20381;-59
2022/07/24 11:13:51;;;;;;;1.73;1.63;;;29.70;81.00;;;;;;5038323;28;20049;-57
2022/07/24 11:16:17;;;;;;;1.70;1.60;;;29.70;82.30;;;;;;5036781;28;20133;-57
2022/07/24 11:19:03;;;;;;;2.60;1.90;;;29.80;82.70;;;;;;5039705;28;20057;-57
2022/07/24 11:21:35;;;;;;;2.10;1.90;;;29.70;81.00;;;;;;5032602;28;20454;-57
2022/07/24 11:24:30;;;;;;;2.33;1.70;;;29.50;81.30;;;;;;5033683;28;20071;-56
2022/07/24 11:27:05;;;;;;;2.00;1.80;;;29.70;81.10;;;;;;5042177;28;20045;-57
2022/07/24 11:29:37;;;;;;;2.00;1.90;;;30.00;82.80;;;;;;5039325;28;20408;-58
2022/07/24 11:32:10;;;;;;;2.17;1.63;;;30.20;80.10;;;;;;5052562;28;20048;-55
2022/07/24 11:34:37;;;;;;;1.88;1.77;;;30.30;81.90;;;;;;5041840;28;20365;-57
2022/07/24 11:37:05;;;;;;;1.77;1.67;;;30.40;80.60;;;;;;5042020;28;20042;-57
2022/07/24 11:39:39;;;;;;;1.77;1.67;;;30.50;81.70;;;;;;5038744;28;20120;-56
2022/07/24 11:42:07;;;;;;;1.63;1.52;;;30.40;79.10;;;;;;5041744;28;20480;-56
2022/07/24 11:44:36;;;;;;;1.85;1.73;;;30.30;80.50;;;;;;5046685;28;20460;-57
2022/07/24 11:47:13;;;;;;;2.00;1.90;;;30.40;81.30;;;;;;5040944;28;20089;-57
2022/07/24 11:49:54;;;;;;;1.98;1.80;;;30.40;80.00;;;;;;5022930;28;20083;-57
2022/07/24 11:52:21;;;;;;;1.90;1.80;;;30.50;81.60;;;;;;5040052;28;20052;-56
2022/07/24 11:54:49;;;;;;;2.72;2.28;;;30.40;80.00;;;;;;5042546;28;20045;-56
2022/07/24 11:57:29;;;;;;;2.70;1.90;;;30.40;79.20;;;;;;5041468;28;20049;-57
2022/07/24 11:59:55;;;;;;;2.92;2.17;;;30.30;78.30;;;;;;5036653;28;20045;-57
2022/07/24 12:02:21;;;;;;;2.67;1.98;;;30.40;78.00;;;;;;5044533;28;20115;-57
2022/07/24 12:04:48;;;;;;;2.40;2.20;;;30.30;78.40;;;;;;5042569;28;20044;-58
2022/07/24 12:07:25;;;;;;;2.08;1.90;;;30.40;79.70;;;;;;5060073;28;20065;-56
2022/07/24 12:09:53;;;;;;;2.30;2.10;;;30.50;80.40;;;;;;5020754;28;20087;-58
2022/07/24 12:12:24;;;;;;;2.00;1.90;;;30.50;79.30;;;;;;5046218;28;20480;-59
2022/07/24 12:15:13;;;;;;;2.30;2.03;;;30.50;79.20;;;;;;5043389;28;20044;-58
2022/07/24 12:17:58;;;;;;;2.35;1.85;;;30.60;79.30;;;;;;5043753;28;20443;-58
2022/07/24 12:20:25;;;;;;;1.85;1.75;;;30.60;79.00;;;;;;5028231;28;20056;-57
2022/07/24 12:22:52;;;;;;;6.32;2.35;;;30.40;77.50;;;;;;5045211;28;20053;-58
2022/07/24 12:25:18;;;;;;;2.00;1.88;;;30.50;79.40;;;;;;5028355;28;20039;-57
2022/07/24 12:27:47;;;;;;;2.47;2.22;;;30.40;78.50;;;;;;5047959;28;20041;-58
2022/07/24 12:30:30;;;;;;;2.70;2.33;;;30.70;79.70;;;;;;5045799;28;20417;-57
2022/07/24 12:33:29;;;;;;;2.40;2.20;;;30.60;77.40;;;;;;5039834;28;20071;-58
2022/07/24 12:36:10;;;;;;;2.17;2.05;;;30.60;78.90;;;;;;5046866;28;20148;-58
2022/07/24 12:38:54;;;;;;;3.00;2.20;;;30.70;79.60;;;;;;5039890;28;20412;-57
2022/07/24 12:41:22;;;;;;;2.10;2.00;;;30.70;78.20;;;;;;5038743;28;20053;-58
2022/07/24 12:43:53;;;;;;;4.38;2.47;;;30.80;78.70;;;;;;5050616;28;20120;-58
2022/07/24 12:46:21;;;;;;;2.33;2.00;;;30.70;77.70;;;;;;5044467;28;20098;-58
2022/07/24 12:49:04;;;;;;;2.95;2.20;;;30.80;78.00;;;;;;5037771;28;20037;-57
2022/07/24 12:51:53;;;;;;;2.03;1.92;;;30.40;76.10;;;;;;5042110;28;20048;-58
2022/07/24 12:54:20;;;;;;;2.20;2.05;;;30.70;78.70;;;;;;5041648;28;20044;-57